Time;durP1;ratioP1;P1;durP2;ratioP2;P2;SDS_P1;SDS_P2;PMS_P1;PMS_P2;Temp;Humidity;BMP_temperature;BMP_pressure;BME280_temperature;BME280_humidity;BME280_pressure;Samples;Min_cycle;Max_cycle;Signal;HPM_P1;HPM_P2
2021/08/11 00:01:28;;;;;;;39.50;20.53;;;15.30;99.90;;;;;;5048588;28;20232;-62
2021/08/11 00:03:54;;;;;;;39.87;20.37;;;15.30;99.90;;;;;;5051860;28;20279;-64
2021/08/11 00:06:22;;;;;;;44.07;21.37;;;15.30;99.90;;;;;;5052071;28;20287;-64
2021/08/11 00:08:49;;;;;;;43.47;21.80;;;15.30;99.90;;;;;;5051528;28;20267;-64
2021/08/11 00:11:16;;;;;;;45.57;21.63;;;15.20;99.90;;;;;;5052078;28;20311;-63
2021/08/11 00:13:43;;;;;;;44.23;22.37;;;15.30;99.90;;;;;;5051793;28;20209;-64
2021/08/11 00:16:10;;;;;;;40.33;21.67;;;15.20;99.90;;;;;;5050954;28;20259;-64
2021/08/11 00:18:36;;;;;;;49.63;23.27;;;15.20;99.90;;;;;;5051962;28;20209;-64
2021/08/11 00:21:05;;;;;;;47.20;23.10;;;15.20;99.90;;;;;;5051849;28;20267;-63
2021/08/11 00:23:33;;;;;;;51.97;24.10;;;15.10;99.90;;;;;;5051303;28;20209;-64
2021/08/11 00:25:59;;;;;;;49.50;24.80;;;15.10;99.90;;;;;;5051695;28;20226;-64
2021/08/11 00:28:26;;;;;;;61.03;26.23;;;15.10;99.90;;;;;;5051757;28;20279;-63
2021/08/11 00:30:54;;;;;;;60.50;26.60;;;15.10;99.90;;;;;;5051825;28;20652;-63
2021/08/11 00:33:21;;;;;;;61.67;26.40;;;15.10;99.90;;;;;;5044308;28;20207;-64
2021/08/11 00:35:48;;;;;;;68.90;29.07;;;15.10;99.90;;;;;;5051023;28;20201;-64
2021/08/11 00:38:14;;;;;;;88.60;30.60;;;15.10;99.90;;;;;;5051703;28;20209;-64
2021/08/11 00:40:42;;;;;;;99.50;33.47;;;15.10;99.90;;;;;;5051859;28;20234;-64
2021/08/11 00:43:11;;;;;;;97.03;34.53;;;15.20;99.90;;;;;;5031773;28;20241;-64
2021/08/11 00:45:38;;;;;;;97.30;33.43;;;15.20;99.90;;;;;;5031134;28;20210;-64
2021/08/11 00:48:07;;;;;;;100.37;33.83;;;15.20;99.90;;;;;;5031690;28;20256;-63
2021/08/11 00:50:34;;;;;;;98.57;34.40;;;15.20;99.90;;;;;;5040622;28;20308;-64
2021/08/11 00:53:02;;;;;;;107.93;34.83;;;15.20;99.90;;;;;;5051666;28;20205;-64
2021/08/11 00:55:29;;;;;;;105.87;33.77;;;15.20;99.90;;;;;;5051063;28;20828;-62
2021/08/11 00:57:57;;;;;;;101.50;34.97;;;15.20;99.90;;;;;;5031360;28;20252;-64
2021/08/11 01:00:26;;;;;;;109.90;36.37;;;15.20;99.90;;;;;;5031401;28;20642;-64
2021/08/11 01:02:53;;;;;;;118.70;35.37;;;15.30;99.90;;;;;;5031342;28;20236;-64
2021/08/11 01:05:20;;;;;;;124.23;36.37;;;15.30;99.90;;;;;;5030975;28;20272;-62
2021/08/11 01:07:50;;;;;;;120.10;37.03;;;15.30;99.90;;;;;;5050659;28;20665;-63
2021/08/11 01:10:17;;;;;;;131.67;35.97;;;15.30;99.90;;;;;;5051523;28;20229;-63
2021/08/11 01:12:45;;;;;;;137.97;38.07;;;15.30;99.90;;;;;;5050962;28;20554;-63
2021/08/11 01:15:13;;;;;;;136.97;38.63;;;15.20;99.90;;;;;;5051025;28;20732;-63
2021/08/11 01:17:39;;;;;;;144.57;38.83;;;15.20;99.90;;;;;;5051040;28;20263;-64
2021/08/11 01:20:07;;;;;;;146.93;39.40;;;15.20;99.90;;;;;;5051400;28;20229;-64
2021/08/11 01:22:41;;;;;;;144.30;39.70;;;15.20;99.90;;;;;;5044563;28;20623;-64
2021/08/11 01:25:13;;;;;;;141.87;38.47;;;15.20;99.90;;;;;;5031391;28;20209;-64
2021/08/11 01:27:58;;;;;;;129.70;37.50;;;15.30;99.90;;;;;;5030664;28;20714;-63
2021/08/11 01:30:35;;;;;;;126.90;37.43;;;15.30;99.90;;;;;;5034082;28;20283;-64
2021/08/11 01:33:27;;;;;;;127.90;36.10;;;15.30;99.90;;;;;;5035237;28;20271;-63
2021/08/11 01:35:59;;;;;;;137.97;38.40;;;15.30;99.90;;;;;;5035037;28;20733;-63
2021/08/11 01:38:30;;;;;;;130.70;37.27;;;15.30;99.90;;;;;;5043668;28;20202;-63
2021/08/11 01:41:01;;;;;;;138.67;39.63;;;15.30;99.90;;;;;;5051336;28;20226;-64
2021/08/11 01:43:33;;;;;;;136.80;39.00;;;15.30;99.90;;;;;;5035063;28;20206;-63
2021/08/11 01:46:00;;;;;;;132.97;38.23;;;15.30;99.90;;;;;;5034762;28;20206;-63
2021/08/11 01:48:30;;;;;;;147.53;39.27;;;15.30;99.90;;;;;;5034808;28;20241;-63
2021/08/11 01:50:58;;;;;;;128.73;36.50;;;15.40;99.90;;;;;;5034321;28;20234;-64
2021/08/11 01:53:28;;;;;;;129.20;36.90;;;15.30;99.90;;;;;;5034957;28;20206;-63
2021/08/11 01:55:56;;;;;;;131.97;35.57;;;15.30;99.90;;;;;;5033874;28;20214;-64
2021/08/11 01:58:24;;;;;;;129.40;37.67;;;15.30;99.90;;;;;;5034469;28;20206;-64
2021/08/11 02:00:51;;;;;;;125.13;36.27;;;15.30;99.90;;;;;;5034427;28;20357;-63
2021/08/11 02:03:20;;;;;;;124.27;35.53;;;15.30;99.90;;;;;;5034602;28;20206;-64
2021/08/11 02:05:50;;;;;;;136.10;37.03;;;15.30;99.90;;;;;;5034526;28;20210;-64
2021/08/11 02:08:18;;;;;;;129.83;36.10;;;15.20;99.90;;;;;;5034351;28;20230;-64
2021/08/11 02:10:45;;;;;;;129.27;35.53;;;15.20;99.90;;;;;;5034343;28;20650;-64
2021/08/11 02:13:12;;;;;;;144.47;36.97;;;15.20;99.90;;;;;;5047097;28;20216;-64
2021/08/11 02:15:39;;;;;;;131.97;37.47;;;15.20;99.90;;;;;;5054173;28;20263;-64
2021/08/11 02:18:06;;;;;;;156.20;38.93;;;15.20;99.90;;;;;;5054217;28;20209;-64
2021/08/11 02:20:33;;;;;;;148.83;38.40;;;15.20;99.90;;;;;;5053798;28;20226;-62
2021/08/11 02:23:01;;;;;;;168.13;38.77;;;15.20;99.90;;;;;;5054269;28;20209;-64
2021/08/11 02:25:28;;;;;;;163.13;38.57;;;15.20;99.90;;;;;;5054004;28;20205;-64
2021/08/11 02:28:01;;;;;;;150.10;35.83;;;15.20;99.90;;;;;;5053851;28;20693;-63
2021/08/11 02:30:34;;;;;;;171.93;37.90;;;15.10;99.90;;;;;;5053412;28;20283;-64
2021/08/11 02:33:05;;;;;;;161.90;38.33;;;15.10;99.90;;;;;;5054181;28;20209;-64
2021/08/11 02:35:38;;;;;;;172.43;38.10;;;15.10;99.90;;;;;;5053711;28;20210;-64
2021/08/11 02:38:09;;;;;;;180.43;38.53;;;15.10;99.90;;;;;;5053808;28;20614;-64
2021/08/11 02:40:38;;;;;;;196.23;39.13;;;15.10;99.90;;;;;;5052238;28;20291;-64
2021/08/11 02:43:13;;;;;;;222.30;40.00;;;15.00;99.90;;;;;;5053695;28;20294;-64
2021/08/11 02:45:41;;;;;;;264.10;41.37;;;15.00;99.90;;;;;;5047990;28;20731;-63
2021/08/11 02:48:11;;;;;;;266.87;42.93;;;15.00;99.90;;;;;;5053536;28;20702;-63
2021/08/11 02:50:39;;;;;;;272.07;42.57;;;15.00;99.90;;;;;;5053530;28;20234;-64
2021/08/11 02:53:08;;;;;;;248.33;40.47;;;14.90;99.90;;;;;;5045448;28;20202;-63
2021/08/11 02:55:37;;;;;;;216.73;40.57;;;15.00;99.90;;;;;;5033324;28;20206;-63
2021/08/11 02:58:05;;;;;;;196.40;38.70;;;14.90;99.90;;;;;;5033763;28;20252;-64
2021/08/11 03:00:32;;;;;;;183.77;37.93;;;14.90;99.90;;;;;;5033597;28;20225;-64
2021/08/11 03:02:59;;;;;;;179.77;36.57;;;14.90;99.90;;;;;;5048807;28;20206;-64
2021/08/11 03:05:26;;;;;;;187.63;36.33;;;14.90;99.90;;;;;;5053071;28;20670;-64
2021/08/11 03:07:54;;;;;;;161.43;34.57;;;15.00;99.90;;;;;;5053186;28;20221;-63
2021/08/11 03:10:23;;;;;;;158.33;34.67;;;14.90;99.90;;;;;;5053158;28;20224;-63
2021/08/11 03:12:50;;;;;;;159.57;36.23;;;14.90;99.90;;;;;;5052958;28;20213;-64
2021/08/11 03:15:17;;;;;;;158.53;33.73;;;14.90;99.90;;;;;;5053000;28;20665;-63
2021/08/11 03:17:45;;;;;;;148.87;34.67;;;14.90;99.90;;;;;;5049651;28;20205;-63
2021/08/11 03:20:12;;;;;;;156.13;34.23;;;14.90;99.90;;;;;;5032896;28;20883;-64
2021/08/11 03:22:39;;;;;;;141.17;32.57;;;14.90;99.90;;;;;;5032909;28;20285;-64
2021/08/11 03:25:07;;;;;;;128.67;30.93;;;14.90;99.90;;;;;;5032509;28;20205;-64
2021/08/11 03:27:35;;;;;;;130.17;31.53;;;14.90;99.90;;;;;;5032720;28;20296;-64
2021/08/11 03:30:01;;;;;;;107.73;29.60;;;14.90;99.90;;;;;;5032649;28;20280;-64
2021/08/11 03:32:28;;;;;;;110.73;31.07;;;14.80;99.90;;;;;;5032935;28;20257;-63
2021/08/11 03:34:55;;;;;;;128.13;31.87;;;14.80;99.90;;;;;;5037876;28;20654;-63
2021/08/11 03:37:21;;;;;;;118.07;30.00;;;14.90;99.90;;;;;;5052997;28;20213;-64
2021/08/11 03:39:48;;;;;;;125.93;31.10;;;14.90;99.90;;;;;;5052530;28;20229;-64
2021/08/11 03:42:14;;;;;;;136.77;30.00;;;14.80;99.90;;;;;;5052467;28;20263;-64
2021/08/11 03:44:42;;;;;;;121.03;30.83;;;14.80;99.90;;;;;;5052229;28;20209;-63
2021/08/11 03:47:09;;;;;;;123.93;31.03;;;14.80;99.90;;;;;;5052378;28;20222;-64
2021/08/11 03:49:36;;;;;;;113.03;29.77;;;14.80;99.90;;;;;;5052407;28;20236;-64
2021/08/11 03:52:02;;;;;;;99.97;28.37;;;14.80;99.90;;;;;;5038025;28;20221;-64
2021/08/11 03:54:29;;;;;;;128.57;28.77;;;14.70;99.90;;;;;;5032587;28;20210;-63
2021/08/11 03:56:56;;;;;;;128.80;30.90;;;14.70;99.90;;;;;;5031827;28;20203;-64
2021/08/11 03:59:22;;;;;;;140.20;33.47;;;14.60;99.90;;;;;;5032550;28;20618;-64
2021/08/11 04:01:53;;;;;;;138.13;33.57;;;14.60;99.90;;;;;;5032152;28;20230;-64
2021/08/11 04:04:20;;;;;;;162.77;34.13;;;14.60;99.90;;;;;;5031980;28;20218;-63
2021/08/11 04:06:47;;;;;;;159.57;34.97;;;14.60;99.90;;;;;;5032032;28;20206;-63
2021/08/11 04:09:13;;;;;;;154.03;36.50;;;14.60;99.90;;;;;;5032294;28;20218;-64
2021/08/11 04:11:40;;;;;;;166.83;37.40;;;14.60;99.90;;;;;;5032409;28;20364;-64
2021/08/11 04:14:07;;;;;;;184.73;38.23;;;14.60;99.90;;;;;;5032208;28;20210;-64
2021/08/11 04:16:33;;;;;;;185.10;37.13;;;14.60;99.90;;;;;;5030399;28;20267;-64
2021/08/11 04:19:01;;;;;;;196.60;35.93;;;14.60;99.90;;;;;;5049680;28;20259;-64
2021/08/11 04:21:28;;;;;;;167.27;34.43;;;14.60;99.90;;;;;;5048641;28;20221;-64
2021/08/11 04:23:54;;;;;;;152.50;34.33;;;14.70;99.90;;;;;;5051666;28;20209;-64
2021/08/11 04:26:21;;;;;;;130.43;30.50;;;14.70;99.90;;;;;;5051467;28;20254;-64
2021/08/11 04:28:48;;;;;;;122.10;31.60;;;14.70;99.90;;;;;;5051758;28;20221;-64
2021/08/11 04:31:14;;;;;;;131.80;29.57;;;14.70;99.90;;;;;;5051210;28;20294;-64
2021/08/11 04:33:41;;;;;;;166.27;32.97;;;14.70;99.90;;;;;;5051481;28;20931;-65
2021/08/11 04:36:09;;;;;;;268.10;38.83;;;14.70;99.90;;;;;;5051212;28;20251;-62
2021/08/11 04:38:36;;;;;;;341.40;42.10;;;14.70;99.90;;;;;;5051420;28;20670;-61
2021/08/11 04:41:02;;;;;;;461.53;45.67;;;14.70;99.90;;;;;;5051418;28;20226;-62
2021/08/11 04:43:29;;;;;;;635.80;54.93;;;14.70;99.90;;;;;;5051337;28;20213;-59
2021/08/11 04:45:56;;;;;;;572.03;51.57;;;14.80;99.90;;;;;;5050889;28;20209;-62
2021/08/11 04:48:22;;;;;;;718.13;55.40;;;14.80;99.90;;;;;;5051580;28;20237;-61
2021/08/11 04:50:49;;;;;;;676.40;50.57;;;14.80;99.90;;;;;;5051505;28;20229;-60
2021/08/11 04:53:17;;;;;;;792.33;55.07;;;14.90;99.90;;;;;;5051419;28;20202;-61
2021/08/11 04:55:43;;;;;;;630.13;47.13;;;14.90;99.90;;;;;;5051294;28;20617;-61
2021/08/11 04:58:10;;;;;;;583.13;48.20;;;15.00;99.90;;;;;;5051167;28;20206;-61
2021/08/11 05:00:36;;;;;;;752.93;54.40;;;15.00;99.90;;;;;;5051214;28;20221;-61
2021/08/11 05:03:03;;;;;;;741.13;53.83;;;15.00;99.90;;;;;;5051498;28;20217;-60
2021/08/11 05:05:30;;;;;;;809.27;55.17;;;15.00;99.90;;;;;;5055224;28;20736;-61
2021/08/11 05:07:56;;;;;;;590.20;46.93;;;15.00;99.90;;;;;;5055269;28;20217;-62
2021/08/11 05:10:24;;;;;;;644.57;49.17;;;15.00;99.90;;;;;;5054945;28;20243;-68
2021/08/11 05:12:51;;;;;;;568.40;43.57;;;15.00;99.90;;;;;;5047604;28;20213;-60
2021/08/11 05:15:18;;;;;;;597.80;45.13;;;14.90;99.90;;;;;;5054699;28;20678;-62
2021/08/11 05:17:45;;;;;;;611.10;44.27;;;15.00;99.90;;;;;;5054989;28;20206;-61
2021/08/11 05:20:13;;;;;;;449.07;38.20;;;15.10;99.90;;;;;;5055114;28;20221;-62
2021/08/11 05:22:40;;;;;;;566.60;44.53;;;15.10;99.90;;;;;;5054833;28;20255;-62
2021/08/11 05:25:07;;;;;;;514.10;39.13;;;15.10;99.90;;;;;;5044514;28;20214;-63
2021/08/11 05:27:35;;;;;;;550.23;42.17;;;15.10;99.90;;;;;;5034389;28;20280;-63
2021/08/11 05:30:03;;;;;;;476.27;40.20;;;15.20;99.90;;;;;;5034908;28;20234;-63
2021/08/11 05:32:30;;;;;;;397.50;37.83;;;15.20;99.90;;;;;;5034769;28;20206;-64
2021/08/11 05:34:56;;;;;;;493.47;39.47;;;15.30;99.90;;;;;;5034635;28;20210;-63
2021/08/11 05:37:23;;;;;;;605.93;44.63;;;15.20;99.90;;;;;;5034214;28;20210;-62
2021/08/11 05:39:50;;;;;;;608.13;42.97;;;15.20;99.90;;;;;;5034377;28;20246;-62
2021/08/11 05:42:16;;;;;;;466.57;39.17;;;15.20;99.90;;;;;;5034109;28;20198;-59
2021/08/11 05:44:44;;;;;;;494.90;41.53;;;15.30;99.90;;;;;;5034533;28;20210;-59
2021/08/11 05:47:11;;;;;;;528.77;44.53;;;15.20;99.90;;;;;;5033968;28;20237;-60
2021/08/11 05:49:38;;;;;;;594.57;46.80;;;15.20;99.90;;;;;;5034367;28;20257;-60
2021/08/11 05:52:06;;;;;;;493.27;40.53;;;15.10;99.90;;;;;;5049395;28;20728;-59
2021/08/11 05:54:34;;;;;;;473.93;42.70;;;15.20;99.90;;;;;;5040213;28;20210;-58
2021/08/11 05:57:01;;;;;;;434.13;41.93;;;15.10;99.90;;;;;;5034146;28;20203;-55
2021/08/11 05:59:28;;;;;;;457.07;43.37;;;15.20;99.90;;;;;;5034019;28;20893;-60
2021/08/11 06:01:56;;;;;;;362.53;41.67;;;15.20;99.90;;;;;;5034120;28;20213;-61
2021/08/11 06:04:24;;;;;;;165.07;31.87;;;15.30;99.90;;;;;;5034211;28;20210;-64
2021/08/11 06:06:52;;;;;;;199.20;33.73;;;15.40;99.90;;;;;;5033948;28;20214;-63
2021/08/11 06:09:18;;;;;;;219.17;36.47;;;15.50;99.90;;;;;;5041141;28;20229;-63
2021/08/11 06:11:45;;;;;;;129.03;32.53;;;15.60;99.90;;;;;;5039076;28;20230;-63
2021/08/11 06:14:12;;;;;;;199.57;34.93;;;15.70;99.90;;;;;;5038618;28;20237;-65
2021/08/11 06:16:39;;;;;;;299.10;37.83;;;15.70;99.90;;;;;;5053822;28;20202;-63
2021/08/11 06:19:07;;;;;;;179.20;33.93;;;15.80;99.90;;;;;;5054199;28;20244;-64
2021/08/11 06:21:33;;;;;;;158.93;32.30;;;15.80;99.90;;;;;;5054081;28;20241;-64
2021/08/11 06:24:00;;;;;;;157.27;32.93;;;15.80;99.90;;;;;;5053532;28;20209;-65
2021/08/11 06:26:27;;;;;;;163.17;35.17;;;15.80;99.90;;;;;;5054071;28;20213;-63
2021/08/11 06:28:53;;;;;;;136.17;33.60;;;15.80;99.90;;;;;;5038561;28;20295;-64
2021/08/11 06:31:21;;;;;;;93.17;31.30;;;16.00;99.90;;;;;;5045482;28;20233;-64
2021/08/11 06:33:48;;;;;;;98.23;31.80;;;16.10;99.90;;;;;;5034127;28;20210;-64
2021/08/11 06:36:16;;;;;;;87.13;30.73;;;16.30;99.90;;;;;;5033291;28;20263;-63
2021/08/11 06:38:43;;;;;;;76.10;29.63;;;16.30;99.90;;;;;;5033234;28;20663;-63
2021/08/11 06:41:15;;;;;;;72.93;29.67;;;16.40;99.90;;;;;;5033297;28;20230;-63
2021/08/11 06:43:42;;;;;;;68.37;29.83;;;16.50;99.90;;;;;;5033153;28;20637;-62
2021/08/11 06:46:08;;;;;;;59.00;27.40;;;16.60;99.90;;;;;;5033617;28;20272;-62
2021/08/11 06:48:36;;;;;;;59.53;28.37;;;16.60;99.90;;;;;;5033000;28;20230;-64
2021/08/11 06:51:02;;;;;;;52.07;27.20;;;16.70;99.90;;;;;;5032193;28;20296;-64
2021/08/11 06:53:30;;;;;;;47.77;25.67;;;16.80;99.90;;;;;;5032901;28;20202;-64
2021/08/11 06:55:57;;;;;;;48.93;25.90;;;16.80;99.90;;;;;;5033002;28;20206;-64
2021/08/11 06:58:24;;;;;;;49.30;25.93;;;16.80;99.90;;;;;;5033265;28;20287;-66
2021/08/11 07:00:52;;;;;;;43.90;24.43;;;16.90;99.90;;;;;;5032573;28;20957;-64
2021/08/11 07:03:19;;;;;;;41.60;24.63;;;17.00;99.90;;;;;;5032508;28;20214;-64
2021/08/11 07:05:46;;;;;;;37.30;23.63;;;17.20;99.90;;;;;;5033085;28;20202;-63
2021/08/11 07:08:12;;;;;;;34.97;21.53;;;17.40;99.90;;;;;;5043864;28;20287;-63
2021/08/11 07:10:40;;;;;;;38.23;22.13;;;17.50;1.00;;;;;;5052309;28;20225;-64
2021/08/11 07:13:07;;;;;;;36.33;21.53;;;17.50;1.00;;;;;;5052478;28;20620;-65
2021/08/11 07:15:34;;;;;;;35.13;21.53;;;17.50;99.90;;;;;;5052312;28;20529;-64
2021/08/11 07:18:00;;;;;;;36.27;21.73;;;17.60;99.90;;;;;;5052352;28;20612;-65
2021/08/11 07:20:29;;;;;;;34.10;21.67;;;17.60;99.90;;;;;;5050597;28;20229;-64
2021/08/11 07:22:58;;;;;;;33.83;20.97;;;17.70;99.90;;;;;;5052421;28;20217;-66
2021/08/11 07:25:25;;;;;;;31.33;20.50;;;17.80;99.90;;;;;;5052317;28;20582;-65
2021/08/11 07:27:53;;;;;;;28.63;19.50;;;18.00;99.90;;;;;;5051464;28;20228;-64
2021/08/11 07:30:20;;;;;;;31.27;18.87;;;18.20;99.90;;;;;;5051144;28;20233;-64
2021/08/11 07:32:47;;;;;;;30.47;19.33;;;18.40;99.90;;;;;;5052528;28;20247;-65
2021/08/11 07:35:14;;;;;;;29.70;19.20;;;18.40;1.00;;;;;;5052410;28;20630;-64
2021/08/11 07:37:48;;;;;;;28.63;18.70;;;18.60;1.00;;;;;;5052286;28;20674;-64
2021/08/11 07:40:15;;;;;;;27.60;16.93;;;18.70;1.00;;;;;;5052042;28;20595;-64
2021/08/11 07:42:42;;;;;;;25.23;17.23;;;18.70;25.40;;;;;;5051698;28;20205;-64
2021/08/11 07:45:12;;;;;;;27.43;18.80;;;18.70;99.90;;;;;;5052318;28;20240;-63
2021/08/11 07:47:39;;;;;;;28.37;18.07;;;18.50;97.00;;;;;;5047550;28;20202;-62
2021/08/11 07:50:07;;;;;;;27.17;18.27;;;18.50;1.00;;;;;;5032212;28;20226;-63
2021/08/11 07:52:34;;;;;;;24.30;16.60;;;18.60;1.00;;;;;;5031971;28;20206;-64
2021/08/11 07:55:01;;;;;;;22.97;16.20;;;18.80;90.90;;;;;;5031684;28;20268;-64
2021/08/11 07:57:28;;;;;;;23.73;16.07;;;18.90;99.90;;;;;;5039263;28;20205;-65
2021/08/11 07:59:55;;;;;;;24.23;17.00;;;19.20;99.90;;;;;;5051838;28;20647;-65
2021/08/11 08:02:23;;;;;;;23.47;16.27;;;19.40;99.90;;;;;;5051832;28;20259;-65
2021/08/11 08:04:49;;;;;;;23.53;15.73;;;19.40;1.00;;;;;;5046932;28;20311;-65
2021/08/11 08:07:16;;;;;;;20.53;15.10;;;19.30;1.00;;;;;;5049681;28;20600;-64
2021/08/11 08:09:43;;;;;;;19.90;14.60;;;19.40;99.90;;;;;;5051660;28;20283;-65
2021/08/11 08:12:10;;;;;;;18.90;13.80;;;19.60;99.90;;;;;;5041659;28;20210;-65
2021/08/11 08:14:36;;;;;;;20.77;14.70;;;19.70;1.00;;;;;;5031651;28;20248;-63
2021/08/11 08:17:03;;;;;;;18.40;13.40;;;19.70;1.00;;;;;;5031649;28;20241;-63
2021/08/11 08:19:32;;;;;;;17.63;13.03;;;19.90;99.90;;;;;;5031723;28;20210;-63
2021/08/11 08:21:58;;;;;;;19.87;13.30;;;20.10;99.90;;;;;;5045433;28;20460;-63
2021/08/11 08:24:25;;;;;;;17.47;12.97;;;20.30;99.90;;;;;;5031410;28;20210;-63
2021/08/11 08:26:51;;;;;;;18.30;12.67;;;20.20;99.90;;;;;;5031317;28;20217;-65
2021/08/11 08:29:18;;;;;;;17.33;11.93;;;20.40;1.00;;;;;;5031146;28;20284;-65
2021/08/11 08:31:45;;;;;;;18.07;13.07;;;20.50;99.90;;;;;;5031238;28;20311;-67
2021/08/11 08:34:11;;;;;;;20.27;12.93;;;20.60;1.00;;;;;;5031265;28;20631;-66
2021/08/11 08:36:39;;;;;;;15.57;12.37;;;20.50;15.80;;;;;;5044020;28;20210;-65
2021/08/11 08:39:06;;;;;;;20.90;12.87;;;20.40;1.00;;;;;;5041470;28;20266;-64
2021/08/11 08:41:34;;;;;;;16.47;12.77;;;20.50;1.00;;;;;;5051015;28;20221;-65
2021/08/11 08:44:01;;;;;;;16.70;12.93;;;20.60;34.50;;;;;;5051053;28;20674;-65
2021/08/11 08:46:28;;;;;;;16.40;12.70;;;20.50;1.00;;;;;;5051218;28;20214;-64
2021/08/11 08:48:57;;;;;;;15.50;10.60;;;20.50;1.00;;;;;;5051008;28;20287;-66
2021/08/11 08:51:25;;;;;;;15.67;11.90;;;20.50;1.00;;;;;;5051003;28;20237;-67
2021/08/11 08:53:54;;;;;;;15.83;10.97;;;20.60;99.90;;;;;;5050440;28;20205;-66
2021/08/11 08:56:20;;;;;;;17.10;11.90;;;20.50;99.90;;;;;;5048192;28;20255;-67
2021/08/11 08:58:47;;;;;;;14.67;11.27;;;20.70;1.00;;;;;;5031038;28;20207;-66
2021/08/11 09:01:14;;;;;;;14.93;12.03;;;20.70;99.90;;;;;;5031040;28;20654;-64
2021/08/11 09:03:41;;;;;;;13.33;10.33;;;20.80;99.90;;;;;;5030588;28;20206;-64
2021/08/11 09:06:07;;;;;;;14.80;11.47;;;20.80;99.90;;;;;;5030653;28;20260;-64
2021/08/11 09:08:34;;;;;;;15.53;12.10;;;20.70;99.90;;;;;;5030900;28;20284;-64
2021/08/11 09:11:14;;;;;;;17.30;10.93;;;20.80;99.90;;;;;;5030665;28;20238;-64
2021/08/11 09:13:41;;;;;;;18.10;12.23;;;20.80;99.90;;;;;;5045000;28;20256;-65
2021/08/11 09:16:07;;;;;;;16.50;12.30;;;21.00;99.90;;;;;;5030902;28;20282;-66
2021/08/11 09:18:34;;;;;;;14.87;12.60;;;21.20;99.90;;;;;;5031054;28;20260;-66
2021/08/11 09:21:12;;;;;;;14.90;11.27;;;21.40;1.00;;;;;;5030441;28;20272;-65
2021/08/11 09:23:40;;;;;;;12.53;9.40;;;21.80;79.30;;;;;;5039598;28;20284;-66
2021/08/11 09:26:09;;;;;;;12.53;8.97;;;22.10;80.20;;;;;;5050809;28;20201;-67
2021/08/11 09:28:37;;;;;;;9.00;7.30;;;22.40;52.60;;;;;;5050860;28;20638;-66
2021/08/11 09:31:23;;;;;;;11.50;8.10;;;22.60;1.00;;;;;;5048578;28;20246;-66
2021/08/11 09:33:51;;;;;;;10.67;8.53;;;22.80;1.00;;;;;;5030576;28;20272;-64
2021/08/11 09:36:18;;;;;;;11.50;8.23;;;22.70;1.00;;;;;;5031123;28;20323;-65
2021/08/11 09:38:57;;;;;;;13.77;7.30;;;22.70;1.00;;;;;;5030854;28;20217;-65
2021/08/11 09:41:26;;;;;;;10.10;7.27;;;22.30;1.00;;;;;;5037557;28;20698;-66
2021/08/11 09:44:04;;;;;;;9.47;7.57;;;22.30;1.00;;;;;;5050136;28;20222;-66
2021/08/11 09:46:31;;;;;;;7.83;6.53;;;22.40;1.00;;;;;;5050791;28;20201;-67
2021/08/11 09:48:59;;;;;;;9.57;6.50;;;22.50;1.00;;;;;;5041122;28;20230;-67
2021/08/11 09:51:26;;;;;;;7.90;6.77;;;22.60;1.00;;;;;;5034246;28;20234;-67
2021/08/11 09:53:53;;;;;;;10.60;7.90;;;22.70;1.00;;;;;;5034294;28;20621;-67
2021/08/11 09:56:19;;;;;;;12.73;8.33;;;22.80;1.00;;;;;;5033601;28;20214;-67
2021/08/11 09:59:01;;;;;;;10.87;7.73;;;22.70;1.00;;;;;;5034373;28;20280;-66
2021/08/11 10:01:29;;;;;;;12.93;7.40;;;22.40;1.00;;;;;;5034127;28;20641;-65
2021/08/11 10:03:57;;;;;;;12.20;8.47;;;22.30;1.00;;;;;;5034076;28;20210;-65
2021/08/11 10:06:25;;;;;;;9.47;7.10;;;22.20;1.00;;;;;;5034204;28;20210;-65
2021/08/11 10:08:52;;;;;;;9.37;6.97;;;22.20;1.00;;;;;;5034044;28;20323;-66
2021/08/11 10:11:35;;;;;;;10.53;7.80;;;22.00;1.00;;;;;;5034039;28;20276;-67
2021/08/11 10:14:05;;;;;;;10.83;7.73;;;21.80;1.00;;;;;;5034209;28;20187;-65
2021/08/11 10:16:34;;;;;;;9.53;7.47;;;21.70;1.00;;;;;;5033740;28;20256;-65
2021/08/11 10:19:03;;;;;;;7.50;5.90;;;21.90;1.00;;;;;;5033404;28;20376;-65
2021/08/11 10:21:32;;;;;;;5.93;5.03;;;22.00;1.00;;;;;;5033801;28;20231;-65
2021/08/11 10:24:00;;;;;;;9.93;5.90;;;22.00;1.00;;;;;;5033881;28;20206;-66
2021/08/11 10:26:28;;;;;;;6.67;5.97;;;22.20;1.00;;;;;;5043106;28;20279;-65
2021/08/11 10:28:55;;;;;;;7.17;5.77;;;22.40;1.00;;;;;;5053743;28;20259;-67
2021/08/11 10:31:24;;;;;;;4.93;4.23;;;22.50;1.00;;;;;;5053629;28;20237;-66
2021/08/11 10:33:52;;;;;;;6.43;4.47;;;22.70;1.00;;;;;;5052895;28;20236;-66
2021/08/11 10:36:19;;;;;;;5.73;4.97;;;22.70;1.00;;;;;;5053359;28;20202;-66
2021/08/11 10:38:47;;;;;;;7.07;5.07;;;22.80;1.00;;;;;;5053635;28;20210;-66
2021/08/11 10:41:14;;;;;;;6.70;5.00;;;22.80;1.00;;;;;;5053235;28;20792;-65
2021/08/11 10:43:43;;;;;;;6.07;5.30;;;22.70;1.00;;;;;;5053173;28;20255;-68
2021/08/11 10:46:15;;;;;;;6.93;5.53;;;22.60;1.00;;;;;;5052797;28;20298;-66
2021/08/11 10:48:43;;;;;;;6.63;5.80;;;22.50;1.00;;;;;;5053745;28;20275;-68
2021/08/11 10:51:10;;;;;;;6.57;5.40;;;22.40;1.00;;;;;;5053104;28;20234;-65
2021/08/11 10:53:37;;;;;;;5.77;4.37;;;22.60;1.00;;;;;;5052647;28;20217;-64
2021/08/11 10:56:04;;;;;;;6.10;4.83;;;22.80;1.00;;;;;;5052954;28;20201;-65
2021/08/11 10:58:36;;;;;;;4.30;3.70;;;22.80;1.00;;;;;;5052978;28;20263;-65
2021/08/11 11:01:03;;;;;;;4.53;3.60;;;22.90;99.90;;;;;;5052104;28;20229;-65
2021/08/11 11:03:51;;;;;;;5.97;3.47;;;23.00;1.00;;;;;;5052643;28;20206;-65
2021/08/11 11:06:18;;;;;;;5.20;3.70;;;23.10;1.00;;;;;;5053051;28;20275;-65
2021/08/11 11:08:45;;;;;;;4.40;3.67;;;23.20;1.00;;;;;;5053205;28;20628;-66
2021/08/11 11:11:34;;;;;;;4.73;3.60;;;23.40;1.00;;;;;;5051919;28;20279;-66
2021/08/11 11:14:02;;;;;;;4.27;3.47;;;23.70;1.00;;;;;;5052983;28;20222;-64
2021/08/11 11:17:03;;;;;;;5.13;3.90;;;23.80;99.90;;;;;;5052387;28;20678;-63
2021/08/11 11:19:32;;;;;;;6.10;3.90;;;23.90;99.90;;;;;;5052682;28;20201;-64
2021/08/11 11:21:59;;;;;;;4.67;3.77;;;23.70;1.00;;;;;;5052477;28;20213;-63
2021/08/11 11:24:49;;;;;;;5.37;4.03;;;23.50;99.90;;;;;;5052231;28;20738;-63
2021/08/11 11:27:57;;;;;;;4.77;4.10;;;23.20;99.90;;;;;;5052592;28;20201;-65
2021/08/11 11:30:38;;;;;;;5.63;4.20;;;23.20;99.90;;;;;;5052522;28;20261;-65
2021/08/11 11:33:31;;;;;;;6.27;3.77;;;23.10;1.00;;;;;;5051998;28;20240;-65
2021/08/11 11:36:25;;;;;;;5.13;3.73;;;23.30;99.90;;;;;;5051964;28;20247;-65
2021/08/11 11:39:11;;;;;;;4.73;3.30;;;23.30;99.90;;;;;;5052277;28;20210;-65
2021/08/11 11:41:39;;;;;;;5.20;3.87;;;23.40;99.90;;;;;;5052253;28;20637;-66
2021/08/11 11:44:44;;;;;;;4.67;3.53;;;23.30;99.90;;;;;;5052056;28;20208;-66
2021/08/11 11:47:11;;;;;;;3.93;3.53;;;23.40;99.90;;;;;;5052574;28;20267;-65
2021/08/11 11:49:38;;;;;;;5.93;3.67;;;23.40;99.90;;;;;;5052018;28;20295;-65
2021/08/11 11:52:13;;;;;;;5.77;3.90;;;23.40;99.90;;;;;;5052056;28;20205;-65
2021/08/11 11:54:44;;;;;;;3.80;3.40;;;23.40;99.90;;;;;;5052158;28;20202;-65
2021/08/11 11:57:12;;;;;;;4.23;3.83;;;23.40;99.90;;;;;;5049559;28;20210;-65
2021/08/11 11:59:44;;;;;;;4.53;3.60;;;23.50;99.90;;;;;;5051830;28;20618;-65
2021/08/11 12:02:19;;;;;;;3.93;3.50;;;23.70;99.90;;;;;;5051931;28;20209;-67
2021/08/11 12:05:01;;;;;;;5.27;3.40;;;23.70;99.90;;;;;;5051844;28;20204;-64
2021/08/11 12:07:30;;;;;;;5.97;3.60;;;23.80;99.90;;;;;;5051751;28;20193;-64
2021/08/11 12:09:57;;;;;;;7.57;3.60;;;23.80;99.90;;;;;;5051960;28;20221;-64
2021/08/11 12:12:23;;;;;;;4.10;3.43;;;23.80;99.90;;;;;;5050202;28;20218;-64
2021/08/11 12:14:50;;;;;;;4.53;3.67;;;23.80;99.90;;;;;;5051855;28;20201;-63
2021/08/11 12:17:28;;;;;;;4.30;3.50;;;23.80;99.90;;;;;;5051480;28;20646;-63
2021/08/11 12:19:55;;;;;;;7.43;3.53;;;24.00;99.90;;;;;;5051401;28;20596;-63
2021/08/11 12:22:33;;;;;;;5.10;4.13;;;24.10;99.90;;;;;;5051436;28;20243;-64
2021/08/11 12:25:00;;;;;;;6.17;4.50;;;24.10;99.90;;;;;;5051486;28;20206;-64
2021/08/11 12:27:27;;;;;;;6.27;4.03;;;24.00;99.90;;;;;;5051368;28;20233;-63
2021/08/11 12:30:15;;;;;;;5.20;4.10;;;23.80;99.90;;;;;;5043997;28;20308;-64
2021/08/11 12:32:42;;;;;;;4.83;4.03;;;23.60;99.90;;;;;;5044666;28;20205;-64
2021/08/11 12:35:11;;;;;;;4.40;3.87;;;23.50;99.90;;;;;;5051318;28;20654;-65
2021/08/11 12:37:45;;;;;;;4.83;4.03;;;23.60;99.90;;;;;;5051462;28;20259;-62